Time;durP1;ratioP1;P1;durP2;ratioP2;P2;SDS_P1;SDS_P2;PMS_P1;PMS_P2;Temp;Humidity;BMP_temperature;BMP_pressure;BME280_temperature;BME280_humidity;BME280_pressure;Samples;Min_cycle;Max_cycle;Signal;HPM_P1;HPM_P2
2022/03/11 00:02:20;;;;;;;0.70;0.53;;;6.30;67.30;;;;;;4916204;29;20191;-70
2022/03/11 00:04:47;;;;;;;0.70;0.50;;;6.30;66.60;;;;;;4916284;29;20168;-71
2022/03/11 00:07:12;;;;;;;0.70;0.50;;;6.30;66.20;;;;;;4918778;29;20462;-71
2022/03/11 00:09:38;;;;;;;1.00;0.83;;;6.30;66.00;;;;;;4931279;29;20832;-70
2022/03/11 00:12:06;;;;;;;3.80;1.43;;;6.40;65.50;;;;;;4937523;29;20183;-70
2022/03/11 00:14:31;;;;;;;5.63;1.40;;;6.40;65.30;;;;;;4937913;29;20563;-70
2022/03/11 00:16:57;;;;;;;0.80;0.80;;;6.50;65.50;;;;;;4938798;29;20525;-70
2022/03/11 00:19:22;;;;;;;0.80;0.70;;;6.60;64.90;;;;;;4929014;29;20692;-70
2022/03/11 00:21:48;;;;;;;0.70;0.50;;;6.60;64.60;;;;;;4919349;29;20180;-70
2022/03/11 00:24:13;;;;;;;0.70;0.50;;;6.60;64.90;;;;;;4918799;29;20196;-70
2022/03/11 00:26:39;;;;;;;0.70;0.50;;;6.60;64.90;;;;;;4918621;29;20254;-71
2022/03/11 00:29:04;;;;;;;1.13;1.03;;;6.70;64.40;;;;;;4941093;29;20641;-71
2022/03/11 00:31:30;;;;;;;1.10;0.70;;;6.70;64.00;;;;;;4939288;29;20183;-71
2022/03/11 00:33:56;;;;;;;0.70;0.57;;;6.70;63.70;;;;;;4938703;28;20210;-71
2022/03/11 00:36:22;;;;;;;0.87;0.83;;;6.70;63.50;;;;;;4938431;29;20253;-71
2022/03/11 00:38:48;;;;;;;2.00;1.63;;;6.80;63.30;;;;;;4933153;29;20182;-71
2022/03/11 00:41:13;;;;;;;1.53;1.43;;;6.80;63.30;;;;;;4918609;29;20855;-71
2022/03/11 00:43:39;;;;;;;0.80;0.70;;;6.80;62.90;;;;;;4918776;29;20192;-71
2022/03/11 00:46:04;;;;;;;0.80;0.70;;;6.80;62.90;;;;;;4919043;29;20175;-71
2022/03/11 00:48:30;;;;;;;0.70;0.60;;;6.80;62.70;;;;;;4920186;29;20637;-71
2022/03/11 00:50:58;;;;;;;0.70;0.50;;;6.80;62.70;;;;;;4938741;28;20209;-71
2022/03/11 00:53:24;;;;;;;2.10;1.17;;;6.70;62.50;;;;;;4939000;29;20207;-71
2022/03/11 00:55:50;;;;;;;0.80;0.70;;;6.80;62.70;;;;;;4938993;28;20415;-70
2022/03/11 00:58:16;;;;;;;0.97;0.87;;;6.70;62.70;;;;;;4937775;29;20923;-71
2022/03/11 01:00:41;;;;;;;0.70;0.50;;;6.70;62.70;;;;;;4919982;29;20186;-71
2022/03/11 01:03:07;;;;;;;1.63;1.53;;;6.60;63.00;;;;;;4918524;29;20745;-71
2022/03/11 01:05:33;;;;;;;0.70;0.50;;;6.60;63.20;;;;;;4918962;29;20736;-71
2022/03/11 01:07:58;;;;;;;0.70;0.50;;;6.50;63.20;;;;;;4919675;29;20187;-71
2022/03/11 01:10:24;;;;;;;1.53;0.93;;;6.50;63.30;;;;;;4949285;29;20182;-71
2022/03/11 01:12:49;;;;;;;1.67;1.57;;;6.40;63.30;;;;;;4937884;29;20673;-71
2022/03/11 01:15:15;;;;;;;0.80;0.70;;;6.50;63.60;;;;;;4938007;29;20649;-71
2022/03/11 01:17:40;;;;;;;0.70;0.50;;;6.40;64.00;;;;;;4934878;29;20199;-71
2022/03/11 01:20:07;;;;;;;1.13;1.03;;;6.40;64.20;;;;;;4938325;29;20175;-71
2022/03/11 01:22:33;;;;;;;1.90;0.90;;;6.40;64.10;;;;;;4936463;29;20222;-71
2022/03/11 01:24:59;;;;;;;0.83;0.80;;;6.40;63.80;;;;;;4953127;28;21252;-71
2022/03/11 01:27:25;;;;;;;0.93;0.80;;;6.40;63.70;;;;;;4932553;29;20431;-70
2022/03/11 01:29:51;;;;;;;0.70;0.50;;;6.30;63.80;;;;;;4918271;29;20420;-71
2022/03/11 01:32:17;;;;;;;1.10;0.87;;;6.30;64.10;;;;;;4918467;29;20430;-72
2022/03/11 01:34:42;;;;;;;1.40;1.00;;;6.30;63.80;;;;;;4918444;29;20204;-71
2022/03/11 01:37:08;;;;;;;0.70;0.50;;;6.30;63.60;;;;;;4918165;29;20258;-71
2022/03/11 01:39:33;;;;;;;1.80;1.07;;;6.30;63.40;;;;;;4918114;29;20656;-71
2022/03/11 01:41:59;;;;;;;1.10;1.00;;;6.30;63.50;;;;;;4917679;29;20611;-71
2022/03/11 01:44:26;;;;;;;0.80;0.70;;;6.20;63.90;;;;;;4919092;29;20608;-71
2022/03/11 01:46:52;;;;;;;0.80;0.70;;;6.30;63.70;;;;;;4917879;29;20167;-71
2022/03/11 01:49:18;;;;;;;0.90;0.80;;;6.20;63.60;;;;;;4917637;29;20424;-71
2022/03/11 01:51:44;;;;;;;0.70;0.50;;;6.10;63.60;;;;;;4917336;29;20415;-70
2022/03/11 01:54:10;;;;;;;1.33;1.17;;;6.20;63.70;;;;;;4917099;29;20498;-71
2022/03/11 01:56:37;;;;;;;0.70;0.50;;;6.10;63.80;;;;;;4918216;29;20259;-71
2022/03/11 01:59:04;;;;;;;0.70;0.50;;;6.10;64.10;;;;;;4918732;29;20416;-71
2022/03/11 02:01:30;;;;;;;0.70;0.60;;;6.00;64.30;;;;;;4918100;29;20511;-70
2022/03/11 02:03:58;;;;;;;0.70;0.50;;;6.10;64.90;;;;;;4917718;29;20478;-71
2022/03/11 02:06:24;;;;;;;0.70;0.50;;;6.10;64.80;;;;;;4918202;29;20474;-71
2022/03/11 02:08:50;;;;;;;1.90;1.67;;;6.10;64.80;;;;;;4917219;29;20455;-71
2022/03/11 02:11:16;;;;;;;0.90;0.80;;;6.10;64.80;;;;;;4917541;29;20418;-71
2022/03/11 02:13:49;;;;;;;0.73;0.60;;;6.10;65.10;;;;;;4917643;29;20514;-71
2022/03/11 02:16:16;;;;;;;2.80;2.60;;;6.00;65.20;;;;;;4932240;29;20207;-71
2022/03/11 02:18:42;;;;;;;2.20;0.93;;;6.00;65.50;;;;;;4917520;29;20434;-71
2022/03/11 02:21:09;;;;;;;1.20;1.10;;;5.90;65.80;;;;;;4918019;29;20415;-71
2022/03/11 02:23:56;;;;;;;0.70;0.50;;;5.90;66.70;;;;;;4916504;29;20466;-70
2022/03/11 02:26:24;;;;;;;2.70;1.37;;;5.80;67.80;;;;;;4918268;29;20916;-71
2022/03/11 02:28:51;;;;;;;0.70;0.50;;;5.80;68.40;;;;;;4917013;29;20450;-71
2022/03/11 02:31:18;;;;;;;1.27;1.17;;;5.70;69.00;;;;;;4917615;29;20940;-71
2022/03/11 02:33:44;;;;;;;0.90;0.90;;;5.70;69.70;;;;;;4917217;29;20438;-71
2022/03/11 02:36:10;;;;;;;1.23;1.13;;;5.60;70.10;;;;;;4916667;29;20609;-70
2022/03/11 02:38:36;;;;;;;0.70;0.50;;;5.60;72.30;;;;;;4916701;29;20203;-70
2022/03/11 02:41:02;;;;;;;0.70;0.50;;;5.60;72.00;;;;;;4918104;29;20160;-71
2022/03/11 02:43:28;;;;;;;1.57;1.50;;;5.60;74.00;;;;;;4916504;29;20424;-70
2022/03/11 02:45:54;;;;;;;0.73;0.57;;;5.60;74.30;;;;;;4917423;29;20423;-71
2022/03/11 02:48:19;;;;;;;1.17;1.07;;;5.60;75.50;;;;;;4917147;29;20216;-71
2022/03/11 02:50:45;;;;;;;0.80;0.70;;;5.60;76.90;;;;;;4917285;29;20882;-71
2022/03/11 02:53:11;;;;;;;1.30;1.20;;;5.60;77.80;;;;;;4916725;29;20551;-71
2022/03/11 02:55:36;;;;;;;1.43;1.33;;;5.60;77.80;;;;;;4917155;29;20531;-70
2022/03/11 02:58:02;;;;;;;0.70;0.50;;;5.60;78.00;;;;;;4917067;29;20235;-71
2022/03/11 03:00:28;;;;;;;1.00;0.90;;;5.70;78.70;;;;;;4917242;29;20697;-71
2022/03/11 03:02:53;;;;;;;0.70;0.50;;;5.70;79.10;;;;;;4916591;29;20435;-70
2022/03/11 03:05:19;;;;;;;0.80;0.70;;;5.70;79.30;;;;;;4916930;29;20178;-71
2022/03/11 03:07:44;;;;;;;0.70;0.50;;;5.70;79.70;;;;;;4916512;29;20195;-71
2022/03/11 03:10:13;;;;;;;0.70;0.50;;;5.70;80.50;;;;;;4917067;29;20721;-71
2022/03/11 03:12:39;;;;;;;1.03;0.90;;;5.60;81.40;;;;;;4916742;29;20182;-71
2022/03/11 03:15:06;;;;;;;0.90;0.80;;;5.60;82.40;;;;;;4916744;29;20489;-71
2022/03/11 03:17:32;;;;;;;0.70;0.40;;;5.60;82.70;;;;;;4916710;29;20974;-71
2022/03/11 03:19:58;;;;;;;0.80;0.60;;;5.60;83.00;;;;;;4916698;29;20419;-71
2022/03/11 03:22:24;;;;;;;0.80;0.70;;;5.60;83.90;;;;;;4916295;29;21115;-71
2022/03/11 03:24:49;;;;;;;0.80;0.70;;;5.60;84.30;;;;;;4930925;29;20191;-71
2022/03/11 03:27:16;;;;;;;4.40;0.90;;;5.60;84.90;;;;;;4916547;29;20262;-71
2022/03/11 03:29:41;;;;;;;0.90;0.80;;;5.70;85.00;;;;;;4916649;29;20171;-71
2022/03/11 03:32:07;;;;;;;1.00;0.90;;;5.70;85.60;;;;;;4916384;29;20542;-71
2022/03/11 03:34:36;;;;;;;0.70;0.50;;;5.70;85.60;;;;;;4931345;28;20234;-71
2022/03/11 03:37:07;;;;;;;1.97;1.87;;;5.70;86.30;;;;;;4916615;29;20546;-71
2022/03/11 03:39:36;;;;;;;1.63;1.53;;;5.70;86.80;;;;;;4916784;29;20444;-70
2022/03/11 03:42:01;;;;;;;2.20;2.10;;;5.80;87.00;;;;;;4918868;29;20438;-70
2022/03/11 03:44:27;;;;;;;0.70;0.50;;;5.80;87.80;;;;;;4920199;29;20443;-71
2022/03/11 03:46:53;;;;;;;0.70;0.50;;;5.70;88.20;;;;;;4921151;29;20172;-71
2022/03/11 03:49:19;;;;;;;1.37;1.27;;;5.70;88.30;;;;;;4920818;29;20215;-70
2022/03/11 03:51:45;;;;;;;0.70;0.50;;;5.80;88.90;;;;;;4921017;29;20271;-71
2022/03/11 03:54:11;;;;;;;0.87;0.60;;;5.80;88.50;;;;;;4920367;29;20444;-71
2022/03/11 03:56:40;;;;;;;0.80;0.60;;;5.70;89.40;;;;;;4920391;29;20701;-70
2022/03/11 03:59:07;;;;;;;0.70;0.50;;;5.70;90.00;;;;;;4920453;29;20224;-71
2022/03/11 04:01:38;;;;;;;1.37;1.23;;;5.70;90.40;;;;;;4920251;29;20399;-71
2022/03/11 04:04:05;;;;;;;0.70;0.70;;;5.70;90.50;;;;;;4920284;29;20426;-71
2022/03/11 04:06:31;;;;;;;0.70;0.60;;;5.70;90.50;;;;;;4920399;29;20419;-71
2022/03/11 04:08:58;;;;;;;0.93;0.93;;;5.70;91.00;;;;;;4920314;29;20477;-71
2022/03/11 04:11:24;;;;;;;1.37;1.00;;;5.60;91.10;;;;;;4920410;29;20420;-71
2022/03/11 04:13:50;;;;;;;0.70;0.50;;;5.60;91.60;;;;;;4920396;29;20961;-71
2022/03/11 04:16:16;;;;;;;2.83;1.13;;;5.60;91.80;;;;;;4920571;29;20511;-71
2022/03/11 04:18:42;;;;;;;1.83;1.73;;;5.60;92.10;;;;;;4920620;29;20649;-71
2022/03/11 04:21:07;;;;;;;2.10;2.00;;;5.60;92.00;;;;;;4919064;29;20462;-71
2022/03/11 04:23:33;;;;;;;0.80;0.70;;;5.50;92.70;;;;;;4919078;29;20191;-71
2022/03/11 04:25:58;;;;;;;0.70;0.50;;;5.50;92.80;;;;;;4934741;28;20178;-71
2022/03/11 04:28:24;;;;;;;1.33;1.23;;;5.50;93.40;;;;;;4934877;28;20215;-71
2022/03/11 04:30:50;;;;;;;0.80;0.70;;;5.50;93.40;;;;;;4920096;29;20206;-71
2022/03/11 04:33:15;;;;;;;0.70;0.47;;;5.50;93.80;;;;;;4919593;29;20196;-71
2022/03/11 04:35:41;;;;;;;1.27;1.17;;;5.50;94.10;;;;;;4935036;29;20697;-71
2022/03/11 04:38:06;;;;;;;1.30;1.20;;;5.50;94.00;;;;;;4919881;29;20567;-71
2022/03/11 04:40:32;;;;;;;1.67;1.57;;;5.50;94.30;;;;;;4920049;29;20172;-70
2022/03/11 04:42:58;;;;;;;1.40;1.30;;;5.50;94.60;;;;;;4934165;29;20196;-71
2022/03/11 04:45:24;;;;;;;4.10;2.53;;;5.50;95.50;;;;;;4919657;29;20251;-71
2022/03/11 04:47:49;;;;;;;0.87;0.80;;;5.40;95.90;;;;;;4934593;28;20470;-71
2022/03/11 04:50:15;;;;;;;0.80;0.70;;;5.40;96.60;;;;;;4919706;29;20644;-71
2022/03/11 04:52:40;;;;;;;1.00;0.70;;;5.30;97.00;;;;;;4933692;28;20646;-71
2022/03/11 04:55:06;;;;;;;0.80;0.80;;;5.30;97.60;;;;;;4919958;29;20516;-70
2022/03/11 04:57:32;;;;;;;0.70;0.50;;;5.30;97.90;;;;;;4919457;29;20199;-71
2022/03/11 04:59:57;;;;;;;0.80;0.60;;;5.20;99.00;;;;;;4934500;29;20419;-71
2022/03/11 05:02:24;;;;;;;0.70;0.50;;;5.20;99.60;;;;;;4919652;29;20533;-71
2022/03/11 05:04:50;;;;;;;0.70;0.50;;;5.20;99.90;;;;;;4919577;29;20625;-70
2022/03/11 05:07:16;;;;;;;0.70;0.50;;;5.10;99.90;;;;;;4919456;29;20411;-71
2022/03/11 05:09:41;;;;;;;1.30;1.20;;;5.10;99.90;;;;;;4919412;29;20199;-71
2022/03/11 05:12:07;;;;;;;1.20;1.10;;;5.00;99.90;;;;;;4933631;29;20175;-70
2022/03/11 05:14:33;;;;;;;0.80;0.60;;;5.00;99.90;;;;;;4933853;29;20199;-71
2022/03/11 05:16:58;;;;;;;0.70;0.50;;;5.00;99.90;;;;;;4933877;29;20995;-71
2022/03/11 05:19:24;;;;;;;0.70;0.50;;;4.90;99.90;;;;;;4919254;29;20186;-70
2022/03/11 05:21:51;;;;;;;0.70;0.50;;;4.90;99.90;;;;;;4919792;29;20175;-70
2022/03/11 05:24:16;;;;;;;0.80;0.70;;;4.90;99.90;;;;;;4918834;29;20665;-71
2022/03/11 05:26:42;;;;;;;4.50;1.60;;;4.90;99.90;;;;;;4919234;29;20459;-71
2022/03/11 05:29:08;;;;;;;0.80;0.70;;;4.90;99.90;;;;;;4919393;29;20673;-71
2022/03/11 05:31:33;;;;;;;1.60;1.50;;;4.90;99.90;;;;;;4919096;29;20172;-70
2022/03/11 05:33:59;;;;;;;1.07;0.63;;;4.90;99.90;;;;;;4919296;29;20199;-71
2022/03/11 05:36:25;;;;;;;1.83;1.03;;;4.90;99.90;;;;;;4934055;28;20179;-70
2022/03/11 05:38:51;;;;;;;4.00;1.43;;;4.80;99.90;;;;;;4933609;28;20179;-70
2022/03/11 05:41:17;;;;;;;0.70;0.50;;;4.80;99.90;;;;;;4934084;29;20175;-70
2022/03/11 05:43:43;;;;;;;0.80;0.70;;;4.80;99.90;;;;;;4918827;29;20427;-70
2022/03/11 05:46:09;;;;;;;0.80;0.70;;;4.80;99.90;;;;;;4918054;29;20462;-70
2022/03/11 05:48:34;;;;;;;1.10;0.97;;;4.80;99.90;;;;;;4919368;29;20168;-70
2022/03/11 05:51:00;;;;;;;2.43;1.53;;;4.80;99.90;;;;;;4919557;29;20204;-70
2022/03/11 05:53:26;;;;;;;0.70;0.50;;;4.80;99.90;;;;;;4918410;29;20612;-70
2022/03/11 05:55:51;;;;;;;0.70;0.50;;;4.80;99.90;;;;;;4917947;29;20186;-70
2022/03/11 05:58:17;;;;;;;0.73;0.57;;;4.80;99.90;;;;;;4919453;29;20602;-71
2022/03/11 06:00:42;;;;;;;0.70;0.50;;;4.70;99.90;;;;;;4918592;29;20175;-70
2022/03/11 06:03:08;;;;;;;1.00;0.90;;;4.70;99.90;;;;;;4918548;29;20611;-70
2022/03/11 06:05:33;;;;;;;0.70;0.50;;;4.70;99.90;;;;;;4918485;29;20190;-70
2022/03/11 06:08:02;;;;;;;3.23;3.03;;;4.70;99.90;;;;;;4918315;29;20203;-71
2022/03/11 06:10:27;;;;;;;0.80;0.60;;;4.70;99.90;;;;;;4918747;29;20222;-71
2022/03/11 06:12:53;;;;;;;1.23;0.70;;;4.70;99.90;;;;;;4933365;28;20974;-70
2022/03/11 06:15:18;;;;;;;3.67;1.33;;;4.70;99.90;;;;;;4918811;29;20186;-71
2022/03/11 06:17:44;;;;;;;1.10;1.00;;;4.70;99.90;;;;;;4917733;29;20555;-70
2022/03/11 06:20:12;;;;;;;0.70;0.50;;;4.70;99.90;;;;;;4917955;29;20618;-70
2022/03/11 06:22:47;;;;;;;0.70;0.63;;;4.70;99.90;;;;;;4918109;29;20412;-71
2022/03/11 06:25:13;;;;;;;0.70;0.50;;;4.70;99.90;;;;;;4918487;29;20407;-70
2022/03/11 06:27:38;;;;;;;1.33;1.20;;;4.80;99.90;;;;;;4918507;29;20463;-70
2022/03/11 06:30:04;;;;;;;2.13;2.03;;;4.80;99.90;;;;;;4918589;29;20179;-70
2022/03/11 06:32:30;;;;;;;0.97;0.87;;;4.80;99.90;;;;;;4918164;29;20190;-70
2022/03/11 06:34:55;;;;;;;0.70;0.60;;;4.80;99.90;;;;;;4918676;29;20785;-70
2022/03/11 06:37:21;;;;;;;0.70;0.50;;;4.90;99.90;;;;;;4918275;29;20825;-70
2022/03/11 06:39:47;;;;;;;1.53;1.43;;;4.90;99.90;;;;;;4918321;29;20175;-70
2022/03/11 06:42:12;;;;;;;2.63;1.13;;;5.00;99.90;;;;;;4916666;29;20187;-70
2022/03/11 06:44:38;;;;;;;1.03;1.00;;;5.10;99.90;;;;;;4929388;28;20242;-71
2022/03/11 06:47:03;;;;;;;0.70;0.60;;;5.10;99.90;;;;;;4899288;29;20414;-71
2022/03/11 06:49:29;;;;;;;0.77;0.60;;;5.20;99.90;;;;;;4899118;29;20172;-70
2022/03/11 06:51:54;;;;;;;0.90;0.90;;;5.30;99.90;;;;;;4899240;29;20416;-70
2022/03/11 06:54:20;;;;;;;1.37;1.10;;;5.30;99.90;;;;;;4898876;29;20544;-70
2022/03/11 06:56:46;;;;;;;1.63;0.90;;;5.40;99.90;;;;;;4910373;29;20673;-71
2022/03/11 06:59:12;;;;;;;1.23;1.13;;;5.50;99.90;;;;;;4918210;29;20415;-70
2022/03/11 07:01:37;;;;;;;2.20;2.10;;;5.50;99.90;;;;;;4917229;29;20519;-70
2022/03/11 07:04:03;;;;;;;1.10;0.97;;;5.60;99.90;;;;;;4917743;29;20191;-70
2022/03/11 07:06:28;;;;;;;1.47;1.37;;;5.70;99.90;;;;;;4917771;29;20553;-71
2022/03/11 07:08:54;;;;;;;0.70;0.50;;;5.70;99.90;;;;;;4917272;29;20699;-70
2022/03/11 07:11:19;;;;;;;2.40;1.90;;;5.80;99.90;;;;;;4917983;29;20187;-70
2022/03/11 07:13:45;;;;;;;0.70;0.50;;;5.90;99.90;;;;;;4932015;28;20198;-71
2022/03/11 07:16:12;;;;;;;2.33;1.97;;;5.90;99.90;;;;;;4916785;29;20171;-71
2022/03/11 07:18:37;;;;;;;1.27;0.83;;;6.00;99.90;;;;;;4931869;28;20575;-70
2022/03/11 07:21:03;;;;;;;1.43;1.37;;;6.10;99.90;;;;;;4917348;29;20431;-70
2022/03/11 07:23:29;;;;;;;0.80;0.70;;;6.20;99.90;;;;;;4917610;29;20206;-70
2022/03/11 07:25:55;;;;;;;0.80;0.60;;;6.30;99.90;;;;;;4916265;29;20641;-70
2022/03/11 07:28:21;;;;;;;0.70;0.53;;;6.40;99.90;;;;;;4917613;29;20423;-70
2022/03/11 07:30:47;;;;;;;1.33;1.23;;;6.50;99.90;;;;;;4932236;28;20175;-71
2022/03/11 07:33:12;;;;;;;1.43;1.10;;;6.70;99.90;;;;;;4917611;29;20195;-70
2022/03/11 07:35:38;;;;;;;0.70;0.50;;;6.80;99.70;;;;;;4917625;29;20408;-71
2022/03/11 07:38:04;;;;;;;6.20;3.00;;;7.00;97.80;;;;;;4916396;29;20187;-70
2022/03/11 07:40:30;;;;;;;0.80;0.80;;;7.30;96.10;;;;;;4917625;29;20176;-71
2022/03/11 07:42:56;;;;;;;0.80;0.60;;;7.70;95.60;;;;;;4916354;29;20446;-70
2022/03/11 07:45:21;;;;;;;0.70;0.60;;;8.20;93.80;;;;;;4916497;29;20183;-70
2022/03/11 07:47:47;;;;;;;1.03;0.90;;;8.90;91.80;;;;;;4916211;29;20206;-70
2022/03/11 07:50:13;;;;;;;10.00;1.87;;;9.50;87.80;;;;;;4916612;29;20239;-71
2022/03/11 07:52:39;;;;;;;1.00;0.70;;;10.10;82.10;;;;;;4916221;29;20652;-71
2022/03/11 07:55:09;;;;;;;1.30;1.20;;;10.80;77.40;;;;;;4916692;29;20190;-71
2022/03/11 07:57:39;;;;;;;3.97;2.47;;;11.50;73.10;;;;;;4916223;29;20427;-71
2022/03/11 08:00:08;;;;;;;6.07;3.43;;;12.00;69.20;;;;;;4916895;29;20426;-71
2022/03/11 08:02:34;;;;;;;1.60;1.50;;;12.60;62.60;;;;;;4916591;29;20481;-71
2022/03/11 08:05:00;;;;;;;1.43;1.33;;;13.10;59.60;;;;;;4916598;29;20463;-71
2022/03/11 08:07:26;;;;;;;1.17;0.90;;;13.50;58.70;;;;;;4931050;29;20474;-71
2022/03/11 08:09:52;;;;;;;7.10;3.33;;;13.90;55.80;;;;;;4916758;29;20404;-71
2022/03/11 08:12:18;;;;;;;1.37;1.27;;;14.40;54.80;;;;;;4917226;29;20412;-71
2022/03/11 08:14:43;;;;;;;3.23;2.80;;;14.70;52.70;;;;;;4931172;29;20215;-71
2022/03/11 08:17:09;;;;;;;2.10;1.60;;;14.80;51.10;;;;;;4917710;29;20172;-71
2022/03/11 08:19:36;;;;;;;7.63;1.70;;;15.00;51.30;;;;;;4917266;29;20175;-71
2022/03/11 08:22:02;;;;;;;2.13;1.97;;;15.20;50.30;;;;;;4917308;29;20412;-71
2022/03/11 08:24:28;;;;;;;9.23;3.77;;;15.40;49.80;;;;;;4915479;29;20442;-71
2022/03/11 08:26:54;;;;;;;1.60;1.00;;;15.50;48.80;;;;;;4917264;29;20534;-71
2022/03/11 08:29:20;;;;;;;6.57;2.30;;;15.50;48.40;;;;;;4920551;29;20172;-71
2022/03/11 08:31:47;;;;;;;4.70;2.00;;;15.60;48.30;;;;;;4932014;28;20180;-71
2022/03/11 08:34:12;;;;;;;1.90;1.80;;;16.00;48.60;;;;;;4901954;29;20464;-71
2022/03/11 08:36:39;;;;;;;3.03;2.40;;;16.30;47.40;;;;;;4901667;29;20412;-71
2022/03/11 08:39:05;;;;;;;5.40;2.77;;;16.70;47.50;;;;;;4904708;29;20677;-71
2022/03/11 08:41:32;;;;;;;5.10;3.00;;;17.00;46.50;;;;;;4920586;29;20416;-72
2022/03/11 08:43:59;;;;;;;7.70;3.17;;;17.30;45.60;;;;;;4919999;29;20428;-71
2022/03/11 08:46:26;;;;;;;4.30;2.50;;;17.30;44.40;;;;;;4919858;29;20447;-71
2022/03/11 08:48:52;;;;;;;2.53;1.87;;;17.20;44.60;;;;;;4919478;29;20498;-71
2022/03/11 08:51:17;;;;;;;2.37;2.10;;;17.30;43.80;;;;;;4933372;29;20552;-70
2022/03/11 08:53:43;;;;;;;3.03;2.17;;;17.40;43.30;;;;;;4918315;29;20262;-71
2022/03/11 08:56:08;;;;;;;1.80;1.33;;;17.70;43.10;;;;;;4918634;29;20171;-71
2022/03/11 08:58:34;;;;;;;4.60;2.37;;;18.30;44.40;;;;;;4919886;29;20645;-71
2022/03/11 09:01:00;;;;;;;2.33;1.97;;;18.80;42.90;;;;;;4920029;29;20175;-71
2022/03/11 09:03:25;;;;;;;1.80;1.70;;;19.20;42.20;;;;;;4919249;29;20203;-71
2022/03/11 09:05:51;;;;;;;2.90;1.90;;;19.40;40.60;;;;;;4919813;29;20175;-71
2022/03/11 09:08:17;;;;;;;3.97;3.60;;;19.60;39.80;;;;;;4919552;29;20238;-71
2022/03/11 09:10:42;;;;;;;5.30;2.77;;;19.90;40.60;;;;;;4935229;29;20195;-71
2022/03/11 09:13:08;;;;;;;6.60;2.23;;;20.40;40.50;;;;;;4918638;29;20937;-71
2022/03/11 09:15:34;;;;;;;3.23;1.83;;;20.60;38.90;;;;;;4918560;29;20186;-71
2022/03/11 09:17:59;;;;;;;4.03;2.40;;;20.60;38.00;;;;;;4916970;29;20594;-71
2022/03/11 09:20:26;;;;;;;5.30;4.90;;;20.60;37.40;;;;;;4918989;29;20181;-71
2022/03/11 09:22:52;;;;;;;3.93;1.93;;;20.40;37.30;;;;;;4918068;29;20580;-71
2022/03/11 09:25:18;;;;;;;9.33;4.93;;;20.40;37.50;;;;;;4918151;29;20408;-71
2022/03/11 09:27:45;;;;;;;3.60;3.23;;;20.50;37.10;;;;;;4918009;29;20463;-71
2022/03/11 09:30:11;;;;;;;3.20;2.83;;;20.30;36.80;;;;;;4917607;29;20171;-71
2022/03/11 09:32:37;;;;;;;7.83;3.30;;;19.90;37.00;;;;;;4918963;29;20418;-71
2022/03/11 09:35:04;;;;;;;2.53;2.33;;;20.10;37.10;;;;;;4918876;29;20403;-71
2022/03/11 09:37:29;;;;;;;4.43;2.37;;;20.40;37.10;;;;;;4919535;29;20407;-71
2022/03/11 09:39:55;;;;;;;2.87;2.63;;;20.80;37.40;;;;;;4918104;29;20428;-71
2022/03/11 09:42:21;;;;;;;4.07;2.00;;;21.30;36.70;;;;;;4932401;28;20642;-71
2022/03/11 09:44:52;;;;;;;3.10;2.10;;;21.60;35.70;;;;;;4917161;29;20206;-71
2022/03/11 09:47:18;;;;;;;4.83;2.17;;;21.80;35.30;;;;;;4916977;29;20237;-70
2022/03/11 09:49:44;;;;;;;2.07;1.97;;;22.00;35.40;;;;;;4917496;29;20960;-71
2022/03/11 09:52:11;;;;;;;4.10;2.17;;;22.10;35.10;;;;;;4917958;29;20499;-71
2022/03/11 09:54:36;;;;;;;2.93;2.00;;;22.30;35.00;;;;;;4917681;29;20462;-71
2022/03/11 09:57:02;;;;;;;4.77;2.57;;;22.60;34.40;;;;;;4917582;29;20929;-71
2022/03/11 09:59:28;;;;;;;2.57;1.90;;;22.90;34.70;;;;;;4917304;29;20230;-71
2022/03/11 10:01:54;;;;;;;4.60;3.10;;;23.10;34.50;;;;;;4916998;29;20175;-71
2022/03/11 10:04:21;;;;;;;2.80;2.50;;;23.40;34.20;;;;;;4917090;29;20192;-71
2022/03/11 10:06:48;;;;;;;6.33;4.90;;;24.00;34.10;;;;;;4916767;29;20542;-69
2022/03/11 10:09:19;;;;;;;2.63;2.07;;;24.50;34.30;;;;;;4917063;29;20435;-69
2022/03/11 10:11:53;;;;;;;7.67;3.70;;;24.90;34.00;;;;;;4917427;29;20400;-70
2022/03/11 10:14:30;;;;;;;3.10;1.93;;;25.40;32.50;;;;;;4915821;29;20953;-69
2022/03/11 10:16:56;;;;;;;6.10;4.07;;;25.40;31.80;;;;;;4916854;29;20435;-69
2022/03/11 10:19:22;;;;;;;4.40;3.30;;;25.50;31.20;;;;;;4931884;28;20517;-71
2022/03/11 10:21:50;;;;;;;4.63;3.90;;;25.50;31.20;;;;;;4917081;29;20254;-71
2022/03/11 10:24:20;;;;;;;3.93;2.10;;;25.50;31.10;;;;;;4917380;29;20439;-71
2022/03/11 10:26:48;;;;;;;4.83;3.30;;;25.40;31.00;;;;;;4916978;29;20554;-72
2022/03/11 10:29:17;;;;;;;3.00;2.70;;;25.50;31.90;;;;;;4916623;29;20438;-71
2022/03/11 10:31:45;;;;;;;5.73;3.63;;;25.70;31.50;;;;;;4916615;29;20407;-71
2022/03/11 10:34:25;;;;;;;4.60;2.00;;;25.70;30.80;;;;;;4918481;29;20424;-70
2022/03/11 10:36:57;;;;;;;3.00;2.20;;;25.40;30.40;;;;;;4918822;29;20412;-70
2022/03/11 10:39:27;;;;;;;3.67;3.23;;;25.50;30.80;;;;;;4918735;29;20451;-70
2022/03/11 10:41:57;;;;;;;3.87;3.13;;;25.80;30.90;;;;;;4918589;29;20416;-70
2022/03/11 10:44:26;;;;;;;4.00;3.60;;;26.00;30.70;;;;;;4918437;29;20436;-72
2022/03/11 10:46:58;;;;;;;2.37;1.73;;;26.30;30.30;;;;;;4918699;29;20456;-72
2022/03/11 10:49:32;;;;;;;5.00;2.20;;;26.70;31.00;;;;;;4918738;29;20814;-72
2022/03/11 10:51:59;;;;;;;3.90;3.13;;;27.00;30.00;;;;;;4916606;29;20506;-71
2022/03/11 10:54:26;;;;;;;3.13;2.30;;;26.80;29.60;;;;;;4918019;29;20506;-72
2022/03/11 10:56:52;;;;;;;4.20;3.80;;;27.00;29.90;;;;;;4918361;29;20482;-72
2022/03/11 10:59:20;;;;;;;2.77;2.27;;;26.80;29.90;;;;;;4918361;29;20416;-72
2022/03/11 11:01:46;;;;;;;8.00;3.77;;;27.20;30.50;;;;;;4930916;28;20507;-71
2022/03/11 11:04:14;;;;;;;5.00;3.60;;;27.90;30.30;;;;;;4917045;29;20578;-72
2022/03/11 11:06:40;;;;;;;3.13;2.80;;;28.60;29.70;;;;;;4917532;29;20670;-72
2022/03/11 11:09:08;;;;;;;4.07;3.77;;;29.30;29.50;;;;;;4917437;29;20424;-72
2022/03/11 11:11:34;;;;;;;5.77;3.00;;;29.90;28.50;;;;;;4917595;29;20435;-72
2022/03/11 11:14:05;;;;;;;6.50;3.87;;;29.90;28.10;;;;;;4917343;29;20451;-72
2022/03/11 11:16:38;;;;;;;4.47;3.73;;;30.00;28.20;;;;;;4917723;29;20866;-70
2022/03/11 11:19:14;;;;;;;4.40;3.13;;;30.00;28.00;;;;;;4917920;29;20408;-70
2022/03/11 11:21:42;;;;;;;3.43;2.43;;;30.20;27.90;;;;;;4917508;29;20411;-70
2022/03/11 11:24:15;;;;;;;5.63;3.47;;;30.20;27.80;;;;;;4917427;29;20523;-70
2022/03/11 11:26:45;;;;;;;5.93;3.90;;;30.50;27.90;;;;;;4932256;29;20482;-70
2022/03/11 11:29:11;;;;;;;5.30;3.57;;;31.20;27.90;;;;;;4917015;29;20800;-70
2022/03/11 11:31:40;;;;;;;4.60;3.10;;;31.80;27.90;;;;;;4916223;29;20495;-70
2022/03/11 11:34:23;;;;;;;3.60;2.87;;;31.70;27.00;;;;;;4915608;29;20526;-70
2022/03/11 11:36:49;;;;;;;3.63;2.50;;;32.00;27.00;;;;;;4916149;29;20503;-70
2022/03/11 11:39:14;;;;;;;3.83;2.27;;;31.70;26.50;;;;;;4917042;29;20835;-70
2022/03/11 11:41:40;;;;;;;4.70;3.40;;;31.40;26.80;;;;;;4917610;29;20207;-70
2022/03/11 11:44:08;;;;;;;3.90;2.70;;;30.90;26.90;;;;;;4918284;29;20192;-70
2022/03/11 11:46:37;;;;;;;3.13;2.80;;;30.90;27.00;;;;;;4917477;29;20266;-70
2022/03/11 11:49:13;;;;;;;5.07;3.17;;;31.20;27.30;;;;;;4916670;29;20416;-70
2022/03/11 11:51:38;;;;;;;2.53;2.33;;;31.10;26.80;;;;;;4916399;29;20789;-70
2022/03/11 11:54:08;;;;;;;3.30;3.10;;;31.70;27.10;;;;;;4915710;29;20515;-70
2022/03/11 11:56:44;;;;;;;4.23;2.60;;;32.40;26.90;;;;;;4915925;29;20180;-70
2022/03/11 11:59:15;;;;;;;4.43;4.07;;;33.40;26.70;;;;;;4914375;29;20423;-70
2022/03/11 12:01:47;;;;;;;4.33;3.67;;;33.70;25.80;;;;;;4916413;29;20439;-70
2022/03/11 12:04:22;;;;;;;3.53;3.23;;;33.70;25.80;;;;;;4920840;29;20530;-71
2022/03/11 12:07:03;;;;;;;5.90;4.50;;;33.10;25.70;;;;;;4920594;29;20463;-70
2022/03/11 12:09:41;;;;;;;3.33;2.67;;;32.40;26.10;;;;;;4919993;29;20454;-70
2022/03/11 12:12:24;;;;;;;2.77;1.90;;;32.70;26.00;;;;;;4919437;29;20425;-70
2022/03/11 12:15:04;;;;;;;5.43;2.13;;;32.40;25.90;;;;;;4920388;29;20401;-70
2022/03/11 12:17:43;;;;;;;5.53;4.20;;;32.00;26.30;;;;;;4920837;29;20899;-71
2022/03/11 12:20:35;;;;;;;2.93;2.20;;;31.00;26.30;;;;;;4920959;29;20412;-71
2022/03/11 12:23:08;;;;;;;4.53;4.13;;;31.90;27.30;;;;;;4920390;29;21129;-71
2022/03/11 12:25:44;;;;;;;3.43;2.83;;;32.70;26.60;;;;;;4919611;29;20511;-71
2022/03/11 12:28:17;;;;;;;3.70;3.00;;;33.60;26.20;;;;;;4919523;29;20529;-71
2022/03/11 12:30:46;;;;;;;4.33;2.33;;;33.90;25.70;;;;;;4919411;29;20408;-71
2022/03/11 12:33:18;;;;;;;3.00;2.03;;;34.10;25.30;;;;;;4919054;29;20949;-70
2022/03/11 12:35:49;;;;;;;3.20;2.83;;;33.90;25.30;;;;;;4920044;29;20788;-70
2022/03/11 12:38:17;;;;;;;4.10;3.37;;;32.70;24.90;;;;;;4919724;29;20461;-69
2022/03/11 12:40:44;;;;;;;4.23;3.83;;;32.90;25.40;;;;;;4920059;29;20416;-70
2022/03/11 12:43:12;;;;;;;5.30;3.07;;;33.10;25.50;;;;;;4919187;29;20435;-70
2022/03/11 12:45:43;;;;;;;4.93;2.90;;;33.30;25.70;;;;;;4919226;29;20430;-71
2022/03/11 12:48:11;;;;;;;2.00;1.77;;;33.70;25.70;;;;;;4919354;29;20415;-71
2022/03/11 12:50:38;;;;;;;3.93;3.30;;;33.90;25.30;;;;;;4919544;29;20454;-71
2022/03/11 12:53:09;;;;;;;5.73;3.30;;;34.50;25.30;;;;;;4919134;29;20478;-71